Ethelbert, Canada
Current Conditions -  °F | °C
As of 8:07 PM on Sunday 21 Dec 2014 (Local Time) from CYDN Reporting Station
Haze Haze  
Wind Chill: 19°   Ceiling: 400
Heat Index: 28°   Visibility: 2mi
Dew Point: 27°   Wind: 10mph
Humidity: 93%   Direction: 120°ESE
Pressure: 29.54"   Gusts: NA
Location:  51.53°N, 100.4°W
Report Text: CYDN 220207Z AUTO 12009KT 2SM BR OVC004 M02/M03 A2954 RMK SLP021
Loading
Personal Weather Stations






























Interactive Weather Map New forecast layout! Learn more

10-Day Weather Forecast

Advertisements
Track Severe Weather on mobile